createdAt,value
2022-10-13T00:01:14.113Z,9.10
2022-10-13T00:04:01.611Z,7.80
2022-10-13T00:06:49.114Z,8.93
2022-10-13T00:09:37.467Z,8.68
2022-10-13T00:12:24.933Z,9.30
2022-10-13T00:15:12.456Z,8.35
2022-10-13T00:18:00.026Z,8.70
2022-10-13T00:20:49.038Z,8.65
2022-10-13T00:23:36.993Z,9.00
2022-10-13T00:26:25.784Z,8.82
2022-10-13T00:29:13.321Z,8.90
2022-10-13T00:32:00.777Z,8.88
2022-10-13T00:34:48.260Z,8.90
2022-10-13T00:37:36.445Z,8.32
2022-10-13T00:40:23.930Z,8.90
2022-10-13T00:43:19.533Z,8.73
2022-10-13T00:46:07.010Z,9.10
2022-10-13T00:48:54.606Z,9.40
2022-10-13T00:51:46.626Z,9.13
2022-10-13T00:54:34.147Z,8.93
2022-10-13T00:57:21.804Z,9.30
2022-10-13T01:00:09.656Z,9.25
2022-10-13T01:02:57.446Z,9.93
2022-10-13T01:05:45.320Z,9.52
2022-10-13T01:08:33.306Z,9.32
2022-10-13T01:11:49.473Z,9.57
2022-10-13T01:15:02.792Z,9.27
2022-10-13T01:18:31.773Z,9.57
2022-10-13T01:21:23.760Z,10.05
2022-10-13T01:24:43.999Z,10.38
2022-10-13T01:28:09.702Z,10.25
2022-10-13T01:31:05.760Z,10.63
2022-10-13T01:34:04.088Z,10.63
2022-10-13T01:37:05.175Z,10.88
2022-10-13T01:40:25.960Z,11.27
2022-10-13T01:43:30.913Z,10.60
2022-10-13T01:46:26.158Z,10.55
2022-10-13T01:49:17.076Z,10.85
2022-10-13T01:52:12.296Z,11.45
2022-10-13T01:55:07.103Z,11.23
2022-10-13T01:57:54.620Z,11.23
2022-10-13T02:00:50.806Z,11.30
2022-10-13T02:03:59.265Z,9.65
2022-10-13T02:07:02.277Z,11.15
2022-10-13T02:10:11.778Z,11.75
2022-10-13T02:13:07.927Z,11.52
2022-10-13T02:15:59.016Z,11.32
2022-10-13T02:18:47.093Z,10.50
2022-10-13T02:21:35.245Z,11.77
2022-10-13T02:24:22.785Z,11.32
2022-10-13T02:27:10.225Z,10.90
2022-10-13T02:29:57.937Z,11.85
2022-10-13T02:32:50.098Z,12.20
2022-10-13T02:35:37.605Z,11.65
2022-10-13T02:38:25.146Z,11.40
2022-10-13T02:41:12.588Z,12.40
2022-10-13T02:44:00.097Z,12.18
2022-10-13T02:46:54.307Z,11.75
2022-10-13T02:49:41.761Z,12.05
2022-10-13T02:52:29.416Z,10.93
2022-10-13T02:55:16.895Z,12.27
2022-10-13T02:58:06.409Z,12.35
2022-10-13T03:00:53.522Z,12.18
2022-10-13T03:03:41.183Z,12.32
2022-10-13T03:06:28.650Z,12.68
2022-10-13T03:09:16.448Z,12.48
2022-10-13T03:12:04.553Z,12.10
2022-10-13T03:14:52.020Z,12.45
2022-10-13T03:17:39.515Z,13.07
2022-10-13T03:20:26.961Z,13.75
2022-10-13T03:23:14.403Z,13.57
2022-10-13T03:26:02.017Z,12.57
2022-10-13T03:28:50.557Z,12.68
2022-10-13T03:31:38.165Z,12.70
2022-10-13T03:34:25.654Z,13.82
2022-10-13T03:37:13.453Z,12.95
2022-10-13T03:40:02.065Z,13.38
2022-10-13T03:42:49.075Z,12.45
2022-10-13T03:45:36.100Z,13.05
2022-10-13T03:48:23.691Z,12.48
2022-10-13T03:51:13.754Z,12.02
2022-10-13T03:54:05.531Z,12.45
2022-10-13T03:56:53.039Z,12.50
2022-10-13T03:59:41.090Z,12.57
2022-10-13T04:02:28.555Z,11.98
2022-10-13T04:05:18.797Z,12.18
2022-10-13T04:08:06.426Z,12.40
2022-10-13T04:11:00.891Z,12.68
2022-10-13T04:13:48.361Z,11.63
2022-10-13T04:16:35.803Z,12.10
2022-10-13T04:19:25.588Z,13.15
2022-10-13T04:22:13.935Z,12.52
2022-10-13T04:25:01.700Z,12.63
2022-10-13T04:27:50.301Z,13.18
2022-10-13T04:30:37.790Z,12.98
2022-10-13T04:33:25.262Z,12.68
2022-10-13T04:36:13.931Z,13.18
2022-10-13T04:39:01.540Z,13.43
2022-10-13T04:41:49.127Z,13.32
2022-10-13T04:44:36.584Z,13.38
2022-10-13T04:47:26.608Z,14.27
2022-10-13T04:50:14.194Z,12.95
2022-10-13T04:53:01.737Z,12.38
2022-10-13T04:55:49.312Z,12.98
2022-10-13T04:58:37.754Z,13.68
2022-10-13T05:01:25.546Z,13.82
2022-10-13T05:04:13.249Z,14.45
2022-10-13T05:07:17.158Z,13.93
2022-10-13T05:10:05.242Z,13.93
2022-10-13T05:12:53.679Z,13.38
2022-10-13T05:15:41.156Z,13.32
2022-10-13T05:18:28.653Z,13.30
2022-10-13T05:21:23.597Z,13.45
2022-10-13T05:24:13.565Z,13.82
2022-10-13T05:27:01.528Z,14.70
2022-10-13T05:29:49.096Z,18.50
2022-10-13T05:32:36.573Z,16.73
2022-10-13T05:35:24.027Z,27.90
2022-10-13T05:38:11.556Z,18.77
2022-10-13T05:41:06.553Z,15.00
2022-10-13T05:43:57.266Z,17.85
2022-10-13T05:46:44.866Z,15.95
2022-10-13T05:49:32.625Z,36.33
2022-10-13T05:52:20.721Z,15.30
2022-10-13T05:55:15.771Z,13.85
2022-10-13T05:58:03.281Z,14.98
2022-10-13T06:00:50.986Z,20.25
2022-10-13T06:03:39.933Z,14.45
2022-10-13T06:06:31.266Z,15.13
2022-10-13T06:09:19.336Z,16.38
2022-10-13T06:12:07.662Z,18.98
2022-10-13T06:14:55.591Z,34.65
2022-10-13T06:17:43.060Z,16.92
2022-10-13T06:20:30.530Z,19.73
2022-10-13T06:23:18.009Z,17.33
2022-10-13T06:26:07.347Z,15.38
2022-10-13T06:28:59.542Z,14.95
2022-10-13T06:31:47.978Z,15.48
2022-10-13T06:34:35.442Z,14.73
2022-10-13T06:37:27.124Z,13.55
2022-10-13T06:40:15.341Z,14.20
2022-10-13T06:43:02.515Z,13.48
2022-10-13T06:45:50.120Z,13.65
2022-10-13T06:48:37.853Z,13.55
2022-10-13T06:51:25.562Z,13.45
2022-10-13T06:54:13.024Z,13.20
2022-10-13T06:57:00.446Z,13.25
2022-10-13T06:59:47.520Z,13.52
2022-10-13T07:02:34.652Z,13.40
2022-10-13T07:05:22.080Z,12.27
2022-10-13T07:08:09.540Z,13.23
2022-10-13T07:10:57.637Z,13.52
2022-10-13T07:13:46.852Z,13.30
2022-10-13T07:16:36.123Z,13.32
2022-10-13T07:19:23.587Z,14.35
2022-10-13T07:22:11.075Z,14.13
2022-10-13T07:24:58.515Z,14.32
2022-10-13T07:27:45.626Z,14.32
2022-10-13T07:30:33.130Z,13.82
2022-10-13T07:33:20.755Z,14.93
2022-10-13T07:36:08.466Z,15.65
2022-10-13T07:38:55.516Z,15.27
2022-10-13T07:41:45.421Z,15.15
2022-10-13T07:44:34.941Z,14.65
2022-10-13T07:47:22.688Z,14.38
2022-10-13T07:50:10.617Z,13.70
2022-10-13T07:52:58.133Z,14.45
2022-10-13T07:55:45.592Z,15.18
2022-10-13T07:58:33.674Z,13.40
2022-10-13T08:01:21.143Z,14.00
2022-10-13T08:04:08.642Z,13.40
2022-10-13T08:06:56.118Z,13.80
2022-10-13T08:09:43.885Z,14.10
2022-10-13T08:12:31.329Z,14.23
2022-10-13T08:15:18.826Z,14.68
2022-10-13T08:18:06.316Z,14.48
2022-10-13T08:21:04.242Z,14.00
2022-10-13T08:23:58.310Z,13.77
2022-10-13T08:26:46.588Z,14.07
2022-10-13T08:29:34.114Z,13.93
2022-10-13T08:32:24.290Z,13.70
2022-10-13T08:35:11.794Z,14.55
2022-10-13T08:37:59.486Z,14.73
2022-10-13T08:40:50.034Z,12.90
2022-10-13T08:43:45.287Z,14.68
2022-10-13T08:47:09.814Z,14.10
2022-10-13T08:50:00.920Z,15.85
2022-10-13T08:52:59.916Z,14.95
2022-10-13T08:55:55.384Z,14.25
2022-10-13T08:58:43.083Z,15.13
2022-10-13T09:01:36.042Z,13.93
2022-10-13T09:04:40.773Z,13.38
2022-10-13T09:07:35.095Z,13.15
2022-10-13T09:10:22.312Z,13.95
2022-10-13T09:13:09.981Z,12.73
2022-10-13T09:15:58.328Z,13.43
2022-10-13T09:18:45.802Z,11.73
2022-10-13T09:21:35.725Z,12.10
2022-10-13T09:24:26.666Z,12.20
2022-10-13T09:27:16.875Z,12.93
2022-10-13T09:30:27.884Z,12.27
2022-10-13T09:33:24.507Z,12.50
2022-10-13T09:36:20.418Z,11.15
2022-10-13T09:39:14.795Z,10.82
2022-10-13T09:42:21.528Z,10.48
2022-10-13T09:45:14.568Z,11.25
2022-10-13T09:48:07.526Z,10.07
2022-10-13T09:50:57.036Z,10.75
2022-10-13T09:53:47.271Z,10.60
2022-10-13T09:56:49.059Z,9.82
2022-10-13T09:59:41.044Z,9.82
2022-10-13T10:02:38.322Z,9.43
2022-10-13T10:05:34.286Z,10.05
2022-10-13T10:09:05.481Z,9.65
2022-10-13T10:11:54.999Z,9.00
2022-10-13T10:14:42.545Z,9.50
2022-10-13T10:17:46.581Z,9.23
2022-10-13T10:20:48.689Z,8.77
2022-10-13T10:23:53.883Z,9.55
2022-10-13T10:26:58.663Z,8.73
2022-10-13T10:29:47.004Z,8.07
2022-10-13T10:32:54.594Z,8.63
2022-10-13T10:36:21.992Z,8.63
2022-10-13T10:39:28.310Z,8.02
2022-10-13T10:42:52.174Z,7.72
2022-10-13T10:45:40.329Z,8.00
2022-10-13T10:48:38.142Z,7.35
2022-10-13T10:51:31.505Z,7.28
2022-10-13T10:54:37.410Z,6.60
2022-10-13T10:57:56.632Z,6.72
2022-10-13T11:01:04.924Z,6.45
2022-10-13T11:04:38.014Z,6.10
2022-10-13T11:07:25.439Z,6.88
2022-10-13T11:10:18.302Z,10.43
2022-10-13T11:13:16.097Z,9.68
2022-10-13T11:16:27.066Z,6.90
2022-10-13T11:19:34.350Z,5.97
2022-10-13T11:22:29.334Z,8.23
2022-10-13T11:25:34.999Z,9.65
2022-10-13T11:28:23.316Z,6.78
2022-10-13T11:31:13.518Z,8.73
2022-10-13T11:34:01.916Z,6.22
2022-10-13T11:36:55.336Z,6.47
2022-10-13T11:40:04.587Z,6.63
2022-10-13T11:43:09.654Z,6.05
2022-10-13T11:46:27.232Z,6.90
2022-10-13T11:49:22.938Z,8.10
2022-10-13T11:52:32.018Z,7.05
2022-10-13T11:55:43.141Z,5.47
2022-10-13T11:58:32.189Z,5.35
2022-10-13T12:01:20.316Z,6.00
2022-10-13T12:04:14.712Z,5.63
2022-10-13T12:07:05.944Z,5.40
2022-10-13T12:09:57.042Z,6.00
2022-10-13T12:12:49.359Z,6.57
2022-10-13T12:15:41.321Z,6.30
2022-10-13T12:18:34.114Z,6.07
2022-10-13T12:21:23.235Z,6.30
2022-10-13T12:24:11.017Z,6.50
2022-10-13T12:26:58.945Z,6.03
2022-10-13T12:29:46.497Z,6.13
2022-10-13T12:32:35.884Z,5.45
2022-10-13T12:35:25.713Z,5.95
2022-10-13T12:38:22.016Z,5.32
2022-10-13T12:41:09.754Z,5.05
2022-10-13T12:43:59.978Z,5.57
2022-10-13T12:47:03.617Z,5.03
2022-10-13T12:49:51.228Z,5.18
2022-10-13T12:52:38.335Z,4.85
2022-10-13T12:55:25.845Z,5.50
2022-10-13T12:58:25.412Z,5.22
2022-10-13T13:01:12.525Z,5.00
2022-10-13T13:04:27.333Z,4.68
2022-10-13T13:07:31.142Z,4.60
2022-10-13T13:10:19.725Z,4.43
2022-10-13T13:13:14.996Z,4.47
2022-10-13T13:16:17.666Z,4.28
2022-10-13T13:19:05.151Z,4.30
2022-10-13T13:24:45.589Z,3.80
2022-10-13T13:27:38.569Z,4.15
2022-10-13T13:30:26.451Z,4.05
2022-10-13T13:33:13.922Z,4.90
2022-10-13T13:36:01.529Z,4.78
2022-10-13T13:38:49.311Z,4.43
2022-10-13T13:41:36.512Z,4.10
2022-10-13T13:44:24.001Z,4.20
2022-10-13T13:47:20.980Z,4.28
2022-10-13T13:50:24.029Z,4.80
2022-10-13T13:53:17.552Z,5.20
2022-10-13T13:56:05.055Z,4.97
2022-10-13T13:58:52.583Z,4.88
2022-10-13T14:01:40.154Z,5.03
2022-10-13T14:04:27.809Z,4.75
2022-10-13T14:07:15.392Z,5.22
2022-10-13T14:10:02.997Z,5.03
2022-10-13T14:12:50.827Z,4.22
2022-10-13T14:15:38.458Z,4.43
2022-10-13T14:18:26.077Z,4.65
2022-10-13T14:21:13.625Z,4.80
2022-10-13T14:24:00.832Z,4.68
2022-10-13T14:26:48.312Z,5.10
2022-10-13T14:29:36.446Z,5.10
2022-10-13T14:32:23.713Z,5.07
2022-10-13T14:35:11.437Z,5.20
2022-10-13T14:37:59.004Z,5.10
2022-10-13T14:40:46.547Z,5.75
2022-10-13T14:43:34.098Z,5.80
2022-10-13T14:46:21.762Z,6.13
2022-10-13T14:49:10.831Z,6.35
2022-10-13T14:52:02.994Z,5.78
2022-10-13T14:54:50.501Z,5.97
2022-10-13T14:57:38.146Z,6.65
2022-10-13T15:00:25.623Z,6.28
2022-10-13T15:03:13.181Z,6.03
2022-10-13T15:06:01.092Z,6.20
2022-10-13T15:08:49.347Z,5.82
2022-10-13T15:11:36.891Z,6.00
2022-10-13T15:14:24.422Z,5.78
2022-10-13T15:17:11.428Z,6.15
2022-10-13T15:19:58.975Z,5.63
2022-10-13T15:22:47.494Z,5.10
2022-10-13T15:25:35.927Z,5.97
2022-10-13T15:28:25.678Z,7.05
2022-10-13T15:31:14.188Z,6.68
2022-10-13T15:34:02.287Z,6.07
2022-10-13T15:36:49.832Z,5.75
2022-10-13T15:39:37.776Z,5.88
2022-10-13T15:42:25.274Z,6.55
2022-10-13T15:45:12.853Z,6.53
2022-10-13T15:48:00.380Z,6.28
2022-10-13T15:50:47.841Z,6.70
2022-10-13T15:53:35.446Z,23.00
2022-10-13T15:56:22.991Z,61.55
2022-10-13T15:59:10.452Z,9.05
2022-10-13T16:01:57.661Z,7.40
2022-10-13T16:04:45.323Z,8.27
2022-10-13T16:07:32.852Z,7.90
2022-10-13T16:10:20.381Z,7.55
2022-10-13T16:13:08.626Z,6.70
2022-10-13T16:16:00.122Z,6.15
2022-10-13T16:18:47.684Z,6.72
2022-10-13T16:21:35.282Z,6.50
2022-10-13T16:24:25.399Z,7.13
2022-10-13T16:27:12.901Z,7.38
2022-10-13T16:30:00.429Z,7.03
2022-10-13T16:32:48.081Z,6.55
2022-10-13T16:35:35.842Z,7.00
2022-10-13T16:38:23.307Z,6.82
2022-10-13T16:41:14.549Z,7.35
2022-10-13T16:44:01.796Z,7.38
2022-10-13T16:46:49.739Z,7.90
2022-10-13T16:49:37.219Z,8.07
2022-10-13T16:52:24.755Z,9.45
2022-10-13T16:55:12.884Z,7.47
2022-10-13T16:58:00.367Z,7.65
2022-10-13T17:00:47.963Z,7.15
2022-10-13T17:03:39.095Z,6.50
2022-10-13T17:06:28.049Z,5.72
2022-10-13T17:09:15.573Z,5.53
2022-10-13T17:12:06.070Z,5.90
2022-10-13T17:14:53.555Z,6.03
2022-10-13T17:17:41.073Z,6.00
2022-10-13T17:20:29.977Z,5.85
2022-10-13T17:23:17.475Z,6.35
2022-10-13T17:26:07.849Z,5.72
2022-10-13T17:28:55.020Z,6.20
2022-10-13T17:31:42.637Z,6.47
2022-10-13T17:34:30.101Z,6.55
2022-10-13T17:37:20.047Z,6.57
2022-10-13T17:40:07.843Z,6.75
2022-10-13T17:42:55.422Z,7.43
2022-10-13T17:45:42.938Z,6.80
2022-10-13T17:48:30.040Z,6.28
2022-10-13T17:51:22.352Z,6.43
2022-10-13T17:54:15.638Z,7.25
2022-10-13T17:57:04.076Z,7.20
2022-10-13T17:59:52.127Z,6.45
2022-10-13T18:02:39.750Z,7.40
2022-10-13T18:05:27.317Z,7.05
2022-10-13T18:08:14.966Z,7.75
2022-10-13T18:11:10.701Z,7.75
2022-10-13T18:13:59.061Z,8.55
2022-10-13T18:16:46.727Z,8.10
2022-10-13T18:19:40.091Z,9.85
2022-10-13T18:22:28.139Z,8.60
2022-10-13T18:25:15.659Z,8.60
2022-10-13T18:28:03.176Z,8.60
2022-10-13T18:30:50.668Z,8.95
2022-10-13T18:33:38.227Z,9.05
2022-10-13T18:36:30.179Z,9.10
2022-10-13T18:39:26.365Z,10.43
2022-10-13T18:42:14.101Z,11.07
2022-10-13T18:45:01.576Z,9.65
2022-10-13T18:47:51.322Z,10.27
2022-10-13T18:50:38.895Z,10.38
2022-10-13T18:53:25.953Z,10.43
2022-10-13T18:56:20.323Z,10.07
2022-10-13T18:59:08.668Z,12.15
2022-10-13T19:01:56.296Z,10.85
2022-10-13T19:04:44.949Z,10.73
2022-10-13T19:07:36.841Z,11.00
2022-10-13T19:10:26.325Z,12.18
2022-10-13T19:13:13.851Z,12.23
2022-10-13T19:16:01.435Z,11.27
2022-10-13T19:18:49.407Z,12.75
2022-10-13T19:21:37.862Z,11.98
2022-10-13T19:24:25.556Z,11.48
2022-10-13T19:27:13.033Z,12.18
2022-10-13T19:30:00.507Z,13.40
2022-10-13T19:32:48.014Z,12.45
2022-10-13T19:35:42.616Z,13.98
2022-10-13T19:38:30.091Z,14.05
2022-10-13T19:41:17.668Z,14.20
2022-10-13T19:44:05.195Z,14.50
2022-10-13T19:46:58.894Z,15.00
2022-10-13T19:49:47.170Z,14.60
2022-10-13T19:52:34.617Z,13.57
2022-10-13T19:55:21.744Z,15.32
2022-10-13T19:58:11.325Z,14.57
2022-10-13T20:01:08.360Z,13.95
2022-10-13T20:03:55.978Z,13.40
2022-10-13T20:06:43.454Z,13.20
2022-10-13T20:09:30.975Z,12.70
2022-10-13T20:12:18.432Z,12.73
2022-10-13T20:15:06.991Z,14.43
2022-10-13T20:17:54.480Z,14.07
2022-10-13T20:20:42.765Z,14.10
2022-10-13T20:23:30.621Z,14.07
2022-10-13T20:26:18.810Z,14.20
2022-10-13T20:29:06.396Z,13.43
2022-10-13T20:31:53.946Z,13.07
2022-10-13T20:34:41.700Z,13.07
2022-10-13T20:37:29.175Z,13.50
2022-10-13T20:40:16.690Z,13.15
2022-10-13T20:43:04.219Z,13.65
2022-10-13T20:45:59.989Z,13.82
2022-10-13T20:51:55.903Z,13.48
2022-10-13T20:54:43.050Z,13.70
2022-10-13T20:57:30.157Z,13.27
2022-10-13T21:00:17.775Z,13.57
2022-10-13T21:03:05.268Z,13.68
2022-10-13T21:05:53.922Z,13.10
2022-10-13T21:08:41.491Z,26.63
2022-10-13T21:11:29.034Z,15.55
2022-10-13T21:14:16.599Z,11.98
2022-10-13T21:17:04.162Z,18.85
2022-10-13T21:19:51.619Z,15.25
2022-10-13T21:22:39.077Z,24.33
2022-10-13T21:25:30.828Z,15.77
2022-10-13T21:28:19.964Z,16.88
2022-10-13T21:31:09.801Z,20.15
2022-10-13T21:33:57.268Z,22.33
2022-10-13T21:36:45.447Z,21.38
2022-10-13T21:39:33.807Z,20.77
2022-10-13T21:42:21.273Z,19.05
2022-10-13T21:45:09.248Z,15.88
2022-10-13T21:47:56.772Z,19.65
2022-10-13T21:50:44.363Z,17.55
2022-10-13T21:53:31.838Z,19.30
2022-10-13T21:56:20.068Z,16.95
2022-10-13T21:59:08.079Z,19.17
2022-10-13T22:01:55.564Z,20.10
2022-10-13T22:04:43.072Z,17.13
2022-10-13T22:07:30.530Z,17.50
2022-10-13T22:10:18.127Z,18.17
2022-10-13T22:13:05.671Z,16.63
2022-10-13T22:15:52.798Z,17.20
2022-10-13T22:18:41.448Z,17.83
2022-10-13T22:21:31.458Z,17.83
2022-10-13T22:24:21.255Z,18.30
2022-10-13T22:27:08.725Z,17.40
2022-10-13T22:29:56.238Z,17.65
2022-10-13T22:32:43.778Z,18.75
2022-10-13T22:35:33.234Z,18.98
2022-10-13T22:38:20.689Z,18.83
2022-10-13T22:41:09.040Z,18.02
2022-10-13T22:43:57.844Z,18.98
2022-10-13T22:46:45.415Z,19.27
2022-10-13T22:49:33.907Z,19.85
2022-10-13T22:52:23.932Z,19.95
2022-10-13T22:55:14.287Z,19.17
2022-10-13T22:58:01.776Z,19.30
2022-10-13T23:00:48.853Z,20.52
2022-10-13T23:03:36.843Z,20.20
2022-10-13T23:06:26.910Z,20.67
2022-10-13T23:09:14.568Z,18.55
2022-10-13T23:12:02.240Z,18.48
2022-10-13T23:14:49.767Z,19.33
2022-10-13T23:17:37.973Z,19.20
2022-10-13T23:20:25.511Z,19.60
2022-10-13T23:23:13.040Z,19.48
2022-10-13T23:26:09.594Z,19.85
2022-10-13T23:28:57.563Z,19.52
2022-10-13T23:31:45.103Z,18.70
2022-10-13T23:34:33.163Z,19.77
2022-10-13T23:37:20.871Z,20.00
2022-10-13T23:40:08.899Z,19.85
2022-10-13T23:42:56.354Z,19.80
2022-10-13T23:45:44.508Z,21.35
2022-10-13T23:48:34.252Z,20.15
2022-10-13T23:51:23.791Z,20.92
2022-10-13T23:54:11.555Z,20.73
2022-10-13T23:56:59.086Z,20.08
2022-10-13T23:59:46.924Z,19.95
